Terminal Aerodrome Forecast
Issued by NWS

Home | Current Version | Previous Version | Text Only | Print | Product List | Glossary On
Versions: 1 2 3 4 5 6 7 8 9 10 11 12 13 14 15 16 17 18 19 20 21 22 23 24
000
FTUS43 KGRB 181100
TAFAUW
TAF
KAUW 181139Z 1812/1912 01005KT P6SM OVC012
     FM181900 34003KT P6SM BKN020
     FM190200 VRB02KT P6SM BKN015=

USA.gov is the U.S. government's official web portal to all federal, state and local government web resources and services.